Annette Island Airport Annette US
ICAO: PANT
IATA:
Category: Medium
Scheduled Services:

Elevation: 119 ft
TransAlt. 18000 ft.

Airport Communications:
ASOS:135.75
CTAF:122.9
KETCHIKAN RDO:122.4

PANT Zoom In..

Runways:

(A) RW 02 length 5709 ft width 150 ft
---- / hdg 20

(B) RW 12 length 7493 ft width 150 ft
---- / hdg 124

(C) RW 20 length 5709 ft width 150 ft
---- / hdg 200

(D) RW 30 length 7493 ft width 150 ft
---- / hdg 304

Location; PANT
Day. 20 / Time. 18.53 Zulu
* Altimeter: 30.19
* Temperature: 19° c. 66.2°f.
* Wind from: 320° Speed 09 kn.
Dewpoint: 13° c.
Visibility: 10 Statute Miles.
Clouds: Clear (automated report).

PANT 201853Z AUTO 32009KT 10SM CLR 19/13 A3019 RMK SLP226 T01940128 TSNO VIA AUTODIAL


Wind From 320°
Speed 09 kn.

 
 
jpsmedia.com for Web Design worldairports.se 2018   terms of use